createdAt,value
2019-01-11T00:02:20.458Z,2.29
2019-01-11T00:05:28.174Z,2.29
2019-01-11T00:08:35.402Z,2.25
2019-01-11T00:11:41.112Z,2.19
2019-01-11T00:14:48.356Z,2.36
2019-01-11T00:17:55.615Z,2.37
2019-01-11T00:21:02.926Z,2.36
2019-01-11T00:24:08.600Z,2.37
2019-01-11T00:27:16.041Z,2.39
2019-01-11T00:30:23.269Z,2.42
2019-01-11T00:33:29.978Z,2.38
2019-01-11T00:36:37.580Z,2.42
2019-01-11T00:39:45.009Z,2.44
2019-01-11T00:42:52.305Z,2.37
2019-01-11T00:45:59.869Z,2.43
2019-01-11T00:49:16.368Z,2.49
2019-01-11T00:52:23.491Z,2.32
2019-01-11T00:55:30.746Z,2.43
2019-01-11T00:58:37.869Z,2.46
2019-01-11T01:01:45.557Z,2.37
2019-01-11T01:05:06.898Z,2.48
2019-01-11T01:08:14.071Z,2.42
2019-01-11T01:11:21.378Z,2.47
2019-01-11T01:14:28.672Z,2.31
2019-01-11T01:17:35.975Z,2.38
2019-01-11T01:20:43.429Z,2.42
2019-01-11T01:24:00.131Z,2.50
2019-01-11T01:27:07.327Z,2.44
2019-01-11T01:30:16.646Z,2.47
2019-01-11T01:33:23.842Z,2.47
2019-01-11T01:36:31.052Z,2.42
2019-01-11T01:39:38.272Z,2.60
2019-01-11T01:42:45.647Z,2.51
2019-01-11T01:45:52.786Z,2.64
2019-01-11T01:49:00.026Z,2.58
2019-01-11T01:52:07.270Z,2.59
2019-01-11T01:55:14.991Z,2.58
2019-01-11T01:58:22.112Z,2.54
2019-01-11T02:01:29.501Z,2.60
2019-01-11T02:04:36.700Z,2.62
2019-01-11T02:07:43.907Z,2.67
2019-01-11T02:10:51.203Z,2.72
2019-01-11T02:13:58.436Z,2.65
2019-01-11T02:17:05.991Z,2.69
2019-01-11T02:20:22.486Z,2.77
2019-01-11T02:23:39.157Z,2.84
2019-01-11T02:26:46.361Z,2.79
2019-01-11T02:29:53.549Z,2.80
2019-01-11T02:33:00.893Z,2.83
2019-01-11T02:36:17.593Z,2.84
2019-01-11T02:39:24.817Z,2.86
2019-01-11T02:42:31.203Z,2.85
2019-01-11T02:45:38.388Z,2.80
2019-01-11T02:48:47.861Z,2.90
2019-01-11T02:51:55.017Z,2.83
2019-01-11T02:55:02.351Z,2.88
2019-01-11T02:58:19.112Z,2.88
2019-01-11T03:01:26.326Z,3.01
2019-01-11T03:04:33.636Z,2.97
2019-01-11T03:07:41.225Z,3.03
2019-01-11T03:10:57.525Z,3.07
2019-01-11T03:14:04.799Z,3.02
2019-01-11T03:17:21.734Z,3.08
2019-01-11T03:20:38.177Z,3.06
2019-01-11T03:23:45.295Z,3.05
2019-01-11T03:26:52.430Z,2.98
2019-01-11T03:29:59.652Z,3.03
2019-01-11T03:33:07.770Z,3.09
2019-01-11T03:36:14.982Z,3.08
2019-01-11T03:39:22.106Z,3.15
2019-01-11T03:42:29.421Z,3.19
2019-01-11T03:45:36.634Z,3.17
2019-01-11T03:48:43.758Z,3.22
2019-01-11T03:51:51.064Z,3.11
2019-01-11T03:54:58.256Z,3.22
2019-01-11T03:58:05.738Z,3.13
2019-01-11T04:01:13.133Z,3.27
2019-01-11T04:04:20.643Z,3.19
2019-01-11T04:07:27.894Z,3.23
2019-01-11T04:10:35.028Z,3.14
2019-01-11T04:13:42.242Z,3.22
2019-01-11T04:16:59.369Z,3.28
2019-01-11T04:20:07.634Z,3.15
2019-01-11T04:23:14.840Z,3.30
2019-01-11T04:26:22.184Z,3.31
2019-01-11T04:29:29.304Z,3.28
2019-01-11T04:32:36.706Z,3.32
2019-01-11T04:35:43.976Z,3.33
2019-01-11T04:38:51.406Z,3.42
2019-01-11T04:42:08.153Z,3.51
2019-01-11T04:45:14.755Z,3.42
2019-01-11T04:48:22.056Z,3.44
2019-01-11T04:51:29.275Z,3.40
2019-01-11T04:54:36.511Z,3.44
2019-01-11T04:57:44.296Z,3.40
2019-01-11T05:01:01.324Z,3.48
2019-01-11T05:04:17.702Z,3.52
2019-01-11T05:07:34.492Z,3.57
2019-01-11T05:10:41.621Z,3.69
2019-01-11T05:13:58.890Z,3.58
2019-01-11T05:17:06.279Z,3.59
2019-01-11T05:20:16.837Z,3.62
2019-01-11T05:23:24.348Z,3.61
2019-01-11T05:26:31.484Z,3.75
2019-01-11T05:29:38.721Z,3.74
2019-01-11T05:32:46.031Z,3.73
2019-01-11T05:35:53.547Z,3.72
2019-01-11T05:39:00.774Z,3.75
2019-01-11T05:42:17.483Z,3.93
2019-01-11T05:45:24.606Z,3.92
2019-01-11T05:48:31.804Z,3.99
2019-01-11T05:51:38.934Z,4.01
2019-01-11T05:54:46.174Z,4.14
2019-01-11T05:58:16.170Z,4.18
2019-01-11T06:01:33.829Z,4.17
2019-01-11T06:04:48.767Z,4.19
2019-01-11T06:08:00.433Z,4.29
2019-01-11T06:11:07.630Z,4.20
2019-01-11T06:14:14.967Z,4.24
2019-01-11T06:17:22.177Z,4.34
2019-01-11T06:20:30.352Z,4.32
2019-01-11T06:23:37.972Z,4.38
2019-01-11T06:26:45.171Z,4.32
2019-01-11T06:29:52.312Z,4.33
2019-01-11T06:32:59.605Z,4.35
2019-01-11T06:36:06.999Z,4.45
2019-01-11T06:39:14.176Z,4.43
2019-01-11T06:42:27.271Z,4.48
2019-01-11T06:45:34.577Z,4.45
2019-01-11T06:48:42.492Z,4.50
2019-01-11T06:51:49.696Z,4.45
2019-01-11T06:54:56.933Z,4.55
2019-01-11T06:58:04.134Z,4.55
2019-01-11T07:01:11.267Z,4.64
2019-01-11T07:04:18.413Z,4.73
2019-01-11T07:07:25.938Z,4.77
2019-01-11T07:10:33.140Z,4.82
2019-01-11T07:13:49.851Z,4.79
2019-01-11T07:17:07.013Z,4.86
2019-01-11T07:20:23.341Z,4.90
2019-01-11T07:23:30.467Z,4.90
2019-01-11T07:26:38.606Z,4.86
2019-01-11T07:29:45.218Z,4.91
2019-01-11T07:33:03.503Z,4.93
2019-01-11T07:36:36.694Z,4.95
2019-01-11T07:39:53.226Z,5.06
2019-01-11T07:43:00.346Z,4.92
2019-01-11T07:46:07.560Z,5.03
2019-01-11T07:49:14.686Z,4.95
2019-01-11T07:52:21.911Z,4.98
2019-01-11T07:55:29.119Z,5.21
2019-01-11T07:58:36.442Z,5.17
2019-01-11T08:01:43.747Z,5.15
2019-01-11T08:04:49.354Z,5.14
2019-01-11T08:07:56.493Z,5.38
2019-01-11T08:11:03.700Z,5.27
2019-01-11T08:14:11.685Z,5.29
2019-01-11T08:17:19.004Z,5.39
2019-01-11T08:20:26.217Z,5.39
2019-01-11T08:23:33.432Z,5.44
2019-01-11T08:26:40.646Z,5.49
2019-01-11T08:29:47.284Z,5.52
2019-01-11T08:33:03.750Z,5.56
2019-01-11T08:36:11.030Z,5.61
2019-01-11T08:39:32.348Z,5.74
2019-01-11T08:42:45.950Z,5.81
2019-01-11T08:45:53.154Z,5.73
2019-01-11T08:49:00.408Z,5.77
2019-01-11T08:52:07.650Z,5.82
2019-01-11T08:55:24.449Z,5.99
2019-01-11T08:58:42.927Z,5.95
2019-01-11T09:01:50.085Z,6.06
2019-01-11T09:05:07.813Z,6.14
2019-01-11T09:08:15.042Z,6.22
2019-01-11T09:11:22.340Z,6.18
2019-01-11T09:14:48.275Z,6.21
2019-01-11T09:18:05.423Z,6.22
2019-01-11T09:21:12.629Z,6.34
2019-01-11T09:24:19.936Z,6.26
2019-01-11T09:27:27.245Z,6.41
2019-01-11T09:30:34.551Z,6.40
2019-01-11T09:33:41.688Z,6.45
2019-01-11T09:36:49.139Z,6.39
2019-01-11T09:39:56.275Z,6.45
2019-01-11T09:43:03.656Z,6.46
2019-01-11T09:46:20.273Z,6.45
2019-01-11T09:49:29.267Z,6.52
2019-01-11T09:52:45.841Z,6.54
2019-01-11T09:55:53.147Z,6.51
2019-01-11T09:59:09.849Z,6.49
2019-01-11T10:02:25.275Z,6.56
2019-01-11T10:05:43.411Z,6.55
2019-01-11T10:08:50.531Z,6.57
2019-01-11T10:11:57.759Z,6.65
2019-01-11T10:15:06.108Z,6.64
2019-01-11T10:18:22.665Z,6.69
2019-01-11T10:21:29.872Z,6.63
2019-01-11T10:24:37.191Z,6.69
2019-01-11T10:27:44.315Z,6.75
2019-01-11T10:30:51.547Z,6.72
2019-01-11T10:34:14.217Z,6.81
2019-01-11T10:37:21.347Z,6.78
2019-01-11T10:40:28.727Z,6.73
2019-01-11T10:43:45.479Z,6.85
2019-01-11T10:47:02.142Z,6.79
2019-01-11T10:50:19.112Z,6.86
2019-01-11T10:53:35.745Z,6.93
2019-01-11T10:56:41.549Z,6.92
2019-01-11T10:59:58.265Z,6.95
2019-01-11T11:03:20.832Z,6.94
2019-01-11T11:06:28.066Z,6.85
2019-01-11T11:09:35.354Z,6.92
2019-01-11T11:12:52.066Z,6.99
2019-01-11T11:15:59.936Z,7.00
2019-01-11T11:19:07.269Z,6.99
2019-01-11T11:22:15.580Z,7.03
2019-01-11T11:25:33.659Z,7.06
2019-01-11T11:28:50.313Z,7.02
2019-01-11T11:31:57.530Z,7.03
2019-01-11T11:35:05.317Z,6.94
2019-01-11T11:38:11.955Z,7.02
2019-01-11T11:41:19.079Z,7.05
2019-01-11T11:44:26.456Z,7.10
2019-01-11T11:47:43.058Z,7.16
2019-01-11T11:50:50.454Z,7.10
2019-01-11T11:54:07.095Z,7.08
2019-01-11T11:57:14.331Z,7.09
2019-01-11T12:00:37.228Z,7.14
2019-01-11T12:03:54.412Z,7.12
2019-01-11T12:07:01.614Z,7.01
2019-01-11T12:10:11.214Z,7.03
2019-01-11T12:13:18.424Z,7.08
2019-01-11T12:16:25.548Z,7.04
2019-01-11T12:19:32.853Z,7.02
2019-01-11T12:22:40.275Z,6.98
2019-01-11T12:25:57.304Z,7.07
2019-01-11T12:29:13.689Z,7.10
2019-01-11T12:32:20.814Z,7.15
2019-01-11T12:35:28.014Z,7.30
2019-01-11T12:38:35.307Z,7.30
2019-01-11T12:41:42.447Z,7.30
2019-01-11T12:44:50.489Z,7.32
2019-01-11T12:47:57.615Z,7.28
2019-01-11T12:51:04.923Z,7.25
2019-01-11T12:54:12.218Z,7.27
2019-01-11T12:57:19.521Z,7.27
2019-01-11T13:00:26.738Z,7.27
2019-01-11T13:03:34.168Z,7.32
2019-01-11T13:06:41.308Z,7.34
2019-01-11T13:09:48.430Z,7.31
2019-01-11T13:12:55.455Z,7.31
2019-01-11T13:16:02.767Z,7.27
2019-01-11T13:19:10.315Z,7.31
2019-01-11T13:22:17.573Z,7.28
2019-01-11T13:25:24.707Z,7.29
2019-01-11T13:28:31.943Z,7.32
2019-01-11T13:31:39.251Z,7.32
2019-01-11T13:34:46.452Z,7.34
2019-01-11T13:37:53.757Z,7.34
2019-01-11T13:41:12.865Z,7.36
2019-01-11T13:44:20.079Z,7.34
2019-01-11T13:47:27.278Z,7.35
2019-01-11T13:50:41.802Z,7.38
2019-01-11T13:53:49.023Z,7.29
2019-01-11T13:56:56.233Z,7.28
2019-01-11T14:00:03.930Z,7.28
2019-01-11T14:03:11.333Z,7.25
2019-01-11T14:06:28.014Z,7.26
2019-01-11T14:09:35.314Z,7.17
2019-01-11T14:12:42.443Z,7.14
2019-01-11T14:15:49.634Z,7.15
2019-01-11T14:18:56.774Z,7.15
2019-01-11T14:22:04.143Z,7.10
2019-01-11T14:25:20.826Z,7.11
2019-01-11T14:28:28.121Z,7.05
2019-01-11T14:31:35.302Z,7.02
2019-01-11T14:34:42.577Z,7.05
2019-01-11T14:37:59.109Z,7.03
2019-01-11T14:41:06.401Z,6.98
2019-01-11T14:44:23.308Z,7.02
2019-01-11T14:47:30.525Z,6.99
2019-01-11T14:50:37.716Z,6.98
2019-01-11T14:53:44.937Z,6.98
2019-01-11T14:56:52.090Z,6.95
2019-01-11T15:00:14.991Z,6.91
2019-01-11T15:03:22.209Z,6.91
2019-01-11T15:06:29.425Z,6.86
2019-01-11T15:09:36.742Z,6.81
2019-01-11T15:12:44.575Z,6.85
2019-01-11T15:16:00.797Z,6.77
2019-01-11T15:19:13.871Z,6.78
2019-01-11T15:22:26.680Z,6.84
2019-01-11T15:25:42.912Z,6.74
2019-01-11T15:28:50.139Z,6.76
2019-01-11T15:31:57.249Z,6.78
2019-01-11T15:35:05.393Z,6.73
2019-01-11T15:38:12.554Z,6.73
2019-01-11T15:41:19.849Z,6.73
2019-01-11T15:44:27.178Z,6.75
2019-01-11T15:47:34.296Z,6.68
2019-01-11T15:50:56.010Z,6.66
2019-01-11T15:54:04.511Z,6.66
2019-01-11T15:57:11.706Z,6.63
2019-01-11T16:00:21.433Z,6.58
2019-01-11T16:03:38.893Z,6.66
2019-01-11T16:06:46.082Z,6.59
2019-01-11T16:10:05.621Z,6.63
2019-01-11T16:13:26.978Z,6.60
2019-01-11T16:16:47.455Z,6.59
2019-01-11T16:19:54.586Z,6.59
2019-01-11T16:23:01.711Z,6.64
2019-01-11T16:26:08.608Z,6.62
2019-01-11T16:29:16.146Z,6.57
2019-01-11T16:32:23.274Z,6.60
2019-01-11T16:35:30.571Z,6.58
2019-01-11T16:38:36.695Z,6.45
2019-01-11T16:41:59.257Z,6.62
2019-01-11T16:45:16.195Z,6.64
2019-01-11T16:48:22.670Z,6.58
2019-01-11T16:51:29.958Z,6.57
2019-01-11T16:54:37.278Z,6.54
2019-01-11T16:57:44.406Z,6.51
2019-01-11T17:00:51.610Z,6.55
2019-01-11T17:03:58.723Z,6.58
2019-01-11T17:07:06.202Z,6.47
2019-01-11T17:10:13.652Z,6.48
2019-01-11T17:13:30.715Z,6.48
2019-01-11T17:16:47.533Z,6.51
2019-01-11T17:20:06.643Z,6.45
2019-01-11T17:23:13.848Z,6.47
2019-01-11T17:26:21.044Z,6.43
2019-01-11T17:29:28.252Z,6.40
2019-01-11T17:32:35.461Z,6.45
2019-01-11T17:35:42.688Z,6.45
2019-01-11T17:38:49.820Z,6.47
2019-01-11T17:41:57.124Z,6.50
2019-01-11T17:45:03.670Z,6.36
2019-01-11T17:48:20.160Z,6.39
2019-01-11T17:51:36.836Z,6.37
2019-01-11T17:54:43.953Z,6.37
2019-01-11T17:57:51.070Z,6.33
2019-01-11T18:00:58.295Z,6.31
2019-01-11T18:04:05.587Z,6.30
2019-01-11T18:07:22.316Z,6.31
2019-01-11T18:10:29.526Z,6.23
2019-01-11T18:13:36.659Z,6.23
2019-01-11T18:16:43.950Z,6.17
2019-01-11T18:19:51.176Z,6.06
2019-01-11T18:22:58.452Z,6.07
2019-01-11T18:26:15.148Z,6.05
2019-01-11T18:29:22.382Z,5.98
2019-01-11T18:32:39.025Z,5.99
2019-01-11T18:35:46.308Z,6.01
2019-01-11T18:38:53.434Z,5.92
2019-01-11T18:42:00.610Z,5.89
2019-01-11T18:45:17.755Z,5.93
2019-01-11T18:48:34.429Z,5.83
2019-01-11T18:51:41.622Z,5.82
2019-01-11T18:54:48.727Z,5.82
2019-01-11T18:57:55.841Z,5.78
2019-01-11T19:01:03.033Z,5.77
2019-01-11T19:04:10.231Z,5.72
2019-01-11T19:07:17.376Z,5.68
2019-01-11T19:10:24.676Z,5.70
2019-01-11T19:13:31.866Z,5.57
2019-01-11T19:16:39.160Z,5.56
2019-01-11T19:19:46.456Z,5.61
2019-01-11T19:23:03.648Z,5.60
2019-01-11T19:26:19.901Z,5.58
2019-01-11T19:29:27.060Z,5.48
2019-01-11T19:32:34.806Z,5.47
2019-01-11T19:35:51.053Z,5.38
2019-01-11T19:38:58.153Z,5.33
2019-01-11T19:42:05.550Z,5.37
2019-01-11T19:45:22.319Z,5.45
2019-01-11T19:48:29.446Z,5.37
2019-01-11T19:51:46.792Z,5.46
2019-01-11T19:55:03.545Z,5.34
2019-01-11T19:58:10.794Z,5.23
2019-01-11T20:01:18.024Z,5.28
2019-01-11T20:04:34.543Z,5.25
2019-01-11T20:07:41.982Z,5.23
2019-01-11T20:10:48.997Z,5.14
2019-01-11T20:13:56.201Z,5.16
2019-01-11T20:17:03.420Z,5.10
2019-01-11T20:20:12.123Z,5.10
2019-01-11T20:23:19.316Z,5.19
2019-01-11T20:26:26.526Z,5.13
2019-01-11T20:29:36.998Z,5.10
2019-01-11T20:32:54.124Z,5.15
2019-01-11T20:36:10.483Z,5.07
2019-01-11T20:39:15.948Z,5.01
2019-01-11T20:42:23.077Z,5.05
2019-01-11T20:45:30.370Z,5.04
2019-01-11T20:48:38.064Z,5.00
2019-01-11T20:51:54.434Z,5.03
2019-01-11T20:55:01.634Z,5.05
2019-01-11T20:58:09.657Z,5.00
2019-01-11T21:01:17.443Z,5.03
2019-01-11T21:04:24.638Z,4.99
2019-01-11T21:07:31.960Z,5.01
2019-01-11T21:10:39.251Z,4.94
2019-01-11T21:13:57.290Z,5.03
2019-01-11T21:17:04.709Z,4.95
2019-01-11T21:20:13.761Z,4.93
2019-01-11T21:23:30.571Z,4.89
2019-01-11T21:26:47.318Z,4.94
2019-01-11T21:30:05.316Z,4.93
2019-01-11T21:33:12.617Z,4.96
2019-01-11T21:36:20.093Z,4.92
2019-01-11T21:39:42.513Z,4.85
2019-01-11T21:42:50.731Z,4.87
2019-01-11T21:46:03.310Z,4.85
2019-01-11T21:49:15.532Z,4.80
2019-01-11T21:52:21.052Z,4.83
2019-01-11T21:55:37.902Z,4.86
2019-01-11T21:58:45.289Z,4.77
2019-01-11T22:02:01.744Z,4.78
2019-01-11T22:05:09.184Z,4.80
2019-01-11T22:08:16.542Z,4.77
2019-01-11T22:11:32.969Z,4.84
2019-01-11T22:14:40.167Z,4.80
2019-01-11T22:17:47.362Z,4.72
2019-01-11T22:20:54.485Z,4.84
2019-01-11T22:24:03.192Z,4.85
2019-01-11T22:27:26.332Z,4.80
2019-01-11T22:30:43.376Z,4.88
2019-01-11T22:33:50.662Z,4.81
2019-01-11T22:36:57.858Z,4.86
2019-01-11T22:40:07.794Z,4.87
2019-01-11T22:43:24.416Z,4.98
2019-01-11T22:46:55.206Z,5.03
2019-01-11T22:50:03.528Z,4.93
2019-01-11T22:53:10.586Z,5.03
2019-01-11T22:56:17.874Z,5.01
2019-01-11T22:59:25.012Z,5.03
2019-01-11T23:02:48.002Z,5.06
2019-01-11T23:06:00.204Z,5.04
2019-01-11T23:09:11.703Z,5.04
2019-01-11T23:12:38.849Z,5.17
2019-01-11T23:15:50.026Z,5.07
2019-01-11T23:18:59.480Z,5.01
2019-01-11T23:22:06.699Z,5.06
2019-01-11T23:25:13.158Z,5.13
2019-01-11T23:28:19.736Z,5.06
2019-01-11T23:31:27.050Z,5.12
2019-01-11T23:34:34.972Z,5.12
2019-01-11T23:37:51.813Z,5.17
2019-01-11T23:41:14.200Z,5.06
2019-01-11T23:44:21.498Z,5.01
2019-01-11T23:47:39.242Z,5.15
2019-01-11T23:50:56.292Z,5.07
2019-01-11T23:54:04.159Z,5.05
2019-01-11T23:57:12.954Z,5.15
